createdAt,value
2018-08-18T00:00:15.656Z,97366.18
2018-08-18T00:01:56.937Z,97364.77
2018-08-18T00:03:36.231Z,97368.28
2018-08-18T00:05:12.587Z,97367.02
2018-08-18T00:06:50.048Z,97362.47
2018-08-18T00:08:26.029Z,97366.01
2018-08-18T00:10:05.531Z,97372.77
2018-08-18T00:11:40.650Z,97364.90
2018-08-18T00:13:18.149Z,97363.23
2018-08-18T00:14:55.577Z,97359.47
2018-08-18T00:16:32.032Z,97360.52
2018-08-18T00:18:10.915Z,97356.08
2018-08-18T00:19:47.346Z,97358.81
2018-08-18T00:21:23.345Z,97365.10
2018-08-18T00:23:00.701Z,97362.91
2018-08-18T00:25:12.607Z,97367.89
2018-08-18T00:26:48.389Z,97369.69
2018-08-18T00:28:27.101Z,97370.63
2018-08-18T00:30:13.530Z,97364.81
2018-08-18T00:31:50.409Z,97362.84
2018-08-18T00:33:26.508Z,97373.11
2018-08-18T00:35:03.156Z,97367.23
2018-08-18T00:36:39.924Z,97376.30
2018-08-18T00:38:15.734Z,97375.70
2018-08-18T00:39:54.752Z,97371.34
2018-08-18T00:41:32.891Z,97372.97
2018-08-18T00:43:08.687Z,97376.73
2018-08-18T00:44:45.841Z,97381.00
2018-08-18T00:46:21.317Z,97377.80
2018-08-18T00:47:59.698Z,97372.80
2018-08-18T00:49:35.456Z,97370.75
2018-08-18T00:51:14.681Z,97369.46
2018-08-18T00:52:50.331Z,97373.05
2018-08-18T00:54:26.425Z,97370.75
2018-08-18T00:56:02.248Z,97376.64
2018-08-18T00:57:37.785Z,97373.22
2018-08-18T00:59:12.976Z,97372.11
2018-08-18T01:00:53.608Z,97371.00
2018-08-18T01:02:29.505Z,97375.62
2018-08-18T01:04:09.350Z,97369.03
2018-08-18T01:05:44.544Z,97367.78
2018-08-18T01:07:20.717Z,97365.05
2018-08-18T01:09:04.704Z,97363.77
2018-08-18T01:10:52.200Z,97371.28
2018-08-18T01:12:28.325Z,97365.98
2018-08-18T01:14:14.424Z,97369.15
2018-08-18T01:15:49.748Z,97364.59
2018-08-18T01:17:25.789Z,97365.88
2018-08-18T01:19:02.083Z,97364.84
2018-08-18T01:20:38.568Z,97363.19
2018-08-18T01:22:14.157Z,97363.70
2018-08-18T01:23:49.857Z,97363.44
2018-08-18T01:25:26.220Z,97362.50
2018-08-18T01:27:04.390Z,97370.20
2018-08-18T01:28:40.616Z,97373.36
2018-08-18T01:30:20.605Z,97365.88
2018-08-18T01:31:55.732Z,97376.81
2018-08-18T01:33:32.461Z,97372.03
2018-08-18T01:35:07.746Z,97370.83
2018-08-18T01:36:47.081Z,97377.16
2018-08-18T01:38:24.118Z,97378.61
2018-08-18T01:40:01.314Z,97380.91
2018-08-18T01:41:36.809Z,97376.22
2018-08-18T01:43:11.849Z,97377.75
2018-08-18T01:44:49.411Z,97379.89
2018-08-18T01:46:25.643Z,97381.34
2018-08-18T01:48:02.922Z,97377.30
2018-08-18T01:49:40.147Z,97381.09
2018-08-18T01:51:24.515Z,97377.50
2018-08-18T01:52:59.934Z,97383.82
2018-08-18T01:54:35.166Z,97385.61
2018-08-18T01:56:13.131Z,97384.62
2018-08-18T01:57:51.391Z,97377.69
2018-08-18T01:59:26.838Z,97376.92
2018-08-18T02:01:05.962Z,97382.83
2018-08-18T02:02:40.999Z,97379.92
2018-08-18T02:04:18.334Z,97383.16
2018-08-18T02:05:53.603Z,97377.03
2018-08-18T02:07:29.645Z,97380.85
2018-08-18T02:09:07.714Z,97379.06
2018-08-18T02:10:43.055Z,97375.81
2018-08-18T02:12:18.478Z,97374.81
2018-08-18T02:13:53.975Z,97373.95
2018-08-18T02:15:29.405Z,97378.34
2018-08-18T02:17:18.108Z,97369.51
2018-08-18T02:18:53.353Z,97369.97
2018-08-18T02:20:28.339Z,97372.61
2018-08-18T02:22:03.648Z,97381.66
2018-08-18T02:23:38.967Z,97377.21
2018-08-18T02:25:13.852Z,97376.27
2018-08-18T02:26:51.053Z,97377.48
2018-08-18T02:28:32.773Z,97379.08
2018-08-18T02:30:18.980Z,97376.34
2018-08-18T02:31:53.968Z,97384.56
2018-08-18T02:33:29.167Z,97382.95
2018-08-18T02:35:05.355Z,97380.13
2018-08-18T02:36:40.862Z,97380.73
2018-08-18T02:38:16.937Z,97381.23
2018-08-18T02:39:51.934Z,97385.27
2018-08-18T02:41:29.287Z,97380.63
2018-08-18T02:43:08.808Z,97385.52
2018-08-18T02:44:44.072Z,97386.79
2018-08-18T02:46:36.344Z,97386.70
2018-08-18T02:48:16.432Z,97385.09
2018-08-18T02:49:52.513Z,97380.29
2018-08-18T02:51:27.509Z,97385.93
2018-08-18T02:53:09.126Z,97381.06
2018-08-18T02:54:44.133Z,97379.27
2018-08-18T02:56:19.444Z,97377.32
2018-08-18T02:57:54.849Z,97375.52
2018-08-18T02:59:29.973Z,97379.11
2018-08-18T03:01:05.369Z,97378.27
2018-08-18T03:02:40.452Z,97374.38
2018-08-18T03:04:16.143Z,97382.09
2018-08-18T03:05:52.124Z,97382.84
2018-08-18T03:07:29.665Z,97376.72
2018-08-18T03:09:06.416Z,97382.86
2018-08-18T03:10:41.778Z,97380.12
2018-08-18T03:12:16.691Z,97382.84
2018-08-18T03:13:51.753Z,97383.89
2018-08-18T03:16:01.856Z,97379.69
2018-08-18T03:17:36.822Z,97393.36
2018-08-18T03:19:15.526Z,97392.00
2018-08-18T03:20:50.464Z,97393.02
2018-08-18T03:22:29.457Z,97392.44
2018-08-18T03:24:11.922Z,97395.41
2018-08-18T03:25:47.375Z,97396.03
2018-08-18T03:27:26.047Z,97400.70
2018-08-18T03:29:01.019Z,97395.66
2018-08-18T03:30:36.504Z,97398.32
2018-08-18T03:32:12.190Z,97400.36
2018-08-18T03:33:47.473Z,97403.45
2018-08-18T03:35:22.790Z,97399.00
2018-08-18T03:36:58.112Z,97398.48
2018-08-18T03:38:34.857Z,97399.50
2018-08-18T03:40:09.867Z,97402.76
2018-08-18T03:41:45.030Z,97399.67
2018-08-18T03:43:19.888Z,97406.92
2018-08-18T03:44:55.718Z,97402.76
2018-08-18T03:46:32.148Z,97405.14
2018-08-18T03:48:07.188Z,97406.26
2018-08-18T03:49:42.114Z,97404.13
2018-08-18T03:51:17.242Z,97417.36
2018-08-18T03:52:52.147Z,97414.18
2018-08-18T03:54:28.457Z,97418.45
2018-08-18T03:56:03.503Z,97422.65
2018-08-18T03:57:47.423Z,97420.83
2018-08-18T03:59:22.383Z,97416.24
2018-08-18T04:00:57.322Z,97424.58
2018-08-18T04:02:32.594Z,97422.20
2018-08-18T04:04:10.676Z,97419.64
2018-08-18T04:05:45.572Z,97423.25
2018-08-18T04:07:20.549Z,97432.20
2018-08-18T04:08:55.504Z,97432.31
2018-08-18T04:10:31.888Z,97429.75
2018-08-18T04:12:09.118Z,97431.61
2018-08-18T04:13:44.391Z,97433.50
2018-08-18T04:15:20.774Z,97433.84
2018-08-18T04:16:57.536Z,97437.17
2018-08-18T04:18:34.907Z,97437.02
2018-08-18T04:20:09.912Z,97441.21
2018-08-18T04:21:44.924Z,97440.33
2018-08-18T04:23:19.922Z,97438.64
2018-08-18T04:24:56.843Z,97437.51
2018-08-18T04:26:32.192Z,97435.98
2018-08-18T04:28:07.235Z,97440.50
2018-08-18T04:29:42.157Z,97438.54
2018-08-18T04:31:21.054Z,97436.39
2018-08-18T04:33:03.308Z,97439.36
2018-08-18T04:34:38.486Z,97437.81
2018-08-18T04:36:15.031Z,97435.77
2018-08-18T04:37:50.546Z,97439.19
2018-08-18T04:39:25.464Z,97438.13
2018-08-18T04:41:00.911Z,97438.67
2018-08-18T04:42:35.911Z,97439.16
2018-08-18T04:44:10.890Z,97444.46
2018-08-18T04:45:46.912Z,97441.63
2018-08-18T04:47:31.007Z,97444.80
2018-08-18T04:49:06.200Z,97436.67
2018-08-18T04:50:41.191Z,97446.08
2018-08-18T04:52:16.159Z,97441.13
2018-08-18T04:53:51.205Z,97439.84
2018-08-18T04:55:26.497Z,97445.11
2018-08-18T04:57:01.525Z,97443.31
2018-08-18T04:58:38.255Z,97442.88
2018-08-18T05:00:14.972Z,97441.17
2018-08-18T05:01:49.918Z,97437.36
2018-08-18T05:03:27.331Z,97432.31
2018-08-18T05:05:02.258Z,97433.94
2018-08-18T05:06:39.924Z,97433.81
2018-08-18T05:08:15.035Z,97431.46
2018-08-18T05:09:51.070Z,97431.20
2018-08-18T05:11:26.214Z,97428.47
2018-08-18T05:13:01.758Z,97427.48
2018-08-18T05:14:36.749Z,97427.14
2018-08-18T05:16:12.630Z,97436.38
2018-08-18T05:17:51.947Z,97435.61
2018-08-18T05:19:27.633Z,97439.03
2018-08-18T05:21:02.642Z,97434.71
2018-08-18T05:22:38.609Z,97433.55
2018-08-18T05:24:24.403Z,97432.13
2018-08-18T05:25:59.684Z,97434.77
2018-08-18T05:27:34.638Z,97438.38
2018-08-18T05:29:09.603Z,97430.16
2018-08-18T05:30:44.794Z,97429.89
2018-08-18T05:32:25.939Z,97438.28
2018-08-18T05:34:01.594Z,97442.89
2018-08-18T05:35:37.257Z,97439.63
2018-08-18T05:37:12.325Z,97436.33
2018-08-18T05:38:47.325Z,97437.21
2018-08-18T05:40:24.565Z,97438.48
2018-08-18T05:42:07.490Z,97433.41
2018-08-18T05:43:42.490Z,97433.08
2018-08-18T05:45:24.629Z,97433.08
2018-08-18T05:46:59.785Z,97430.27
2018-08-18T05:48:36.497Z,97431.27
2018-08-18T05:50:11.782Z,97432.67
2018-08-18T05:51:51.162Z,97435.38
2018-08-18T05:53:28.922Z,97435.20
2018-08-18T05:55:03.818Z,97439.02
2018-08-18T05:56:38.969Z,97445.74
2018-08-18T05:58:14.256Z,97439.69
2018-08-18T05:59:49.586Z,97436.84
2018-08-18T06:01:28.627Z,97439.78
2018-08-18T06:03:03.740Z,97434.30
2018-08-18T06:04:40.739Z,97436.23
2018-08-18T06:06:16.582Z,97430.06
2018-08-18T06:07:51.937Z,97440.24
2018-08-18T06:09:27.561Z,97436.47
2018-08-18T06:11:02.505Z,97442.02
2018-08-18T06:12:38.208Z,97439.02
2018-08-18T06:14:14.338Z,97441.03
2018-08-18T06:16:05.166Z,97439.16
2018-08-18T06:17:40.603Z,97437.55
2018-08-18T06:19:15.970Z,97431.83
2018-08-18T06:20:51.055Z,97432.80
2018-08-18T06:22:26.117Z,97433.48
2018-08-18T06:24:01.719Z,97435.48
2018-08-18T06:25:36.860Z,97440.73
2018-08-18T06:27:14.730Z,97435.10
2018-08-18T06:28:49.728Z,97435.97
2018-08-18T06:30:24.866Z,97437.13
2018-08-18T06:32:01.266Z,97435.07
2018-08-18T06:33:36.702Z,97434.15
2018-08-18T06:35:11.954Z,97431.22
2018-08-18T06:36:47.696Z,97432.33
2018-08-18T06:38:23.715Z,97438.08
2018-08-18T06:40:00.347Z,97430.44
2018-08-18T06:41:36.783Z,97437.08
2018-08-18T06:43:12.242Z,97434.30
2018-08-18T06:44:47.242Z,97440.95
2018-08-18T06:46:22.622Z,97432.87
2018-08-18T06:48:13.474Z,97440.61
2018-08-18T06:49:48.515Z,97441.27
2018-08-18T06:51:23.994Z,97440.08
2018-08-18T06:52:59.882Z,97445.41
2018-08-18T06:54:35.311Z,97442.48
2018-08-18T06:56:12.876Z,97438.81
2018-08-18T06:57:52.408Z,97450.66
2018-08-18T06:59:27.894Z,97455.53
2018-08-18T07:01:03.734Z,97450.39
2018-08-18T07:02:41.639Z,97452.39
2018-08-18T07:04:20.717Z,97448.63
2018-08-18T07:05:57.054Z,97449.55
2018-08-18T07:07:33.905Z,97449.84
2018-08-18T07:09:10.222Z,97452.51
2018-08-18T07:10:46.265Z,97454.45
2018-08-18T07:12:22.699Z,97453.44
2018-08-18T07:14:03.139Z,97453.55
2018-08-18T07:15:39.348Z,97454.42
2018-08-18T07:17:14.837Z,97455.32
2018-08-18T07:18:52.059Z,97455.86
2018-08-18T07:20:28.632Z,97458.83
2018-08-18T07:22:04.746Z,97457.84
2018-08-18T07:23:41.722Z,97468.09
2018-08-18T07:25:19.236Z,97468.59
2018-08-18T07:26:55.610Z,97470.10
2018-08-18T07:28:34.938Z,97462.64
2018-08-18T07:30:16.685Z,97467.22
2018-08-18T07:31:55.793Z,97468.36
2018-08-18T07:33:33.699Z,97464.84
2018-08-18T07:35:09.259Z,97462.99
2018-08-18T07:36:44.654Z,97463.91
2018-08-18T07:38:20.632Z,97468.43
2018-08-18T07:39:57.169Z,97470.84
2018-08-18T07:41:32.803Z,97467.89
2018-08-18T07:43:09.367Z,97466.39
2018-08-18T07:44:45.373Z,97469.13
2018-08-18T07:46:22.433Z,97466.52
2018-08-18T07:47:59.451Z,97474.24
2018-08-18T07:49:35.266Z,97474.05
2018-08-18T07:51:10.681Z,97470.37
2018-08-18T07:52:47.632Z,97470.46
2018-08-18T07:54:24.077Z,97467.02
2018-08-18T07:56:00.291Z,97462.20
2018-08-18T07:57:41.663Z,97470.63
2018-08-18T07:59:17.400Z,97463.87
2018-08-18T08:00:53.751Z,97467.20
2018-08-18T08:02:30.864Z,97470.75
2018-08-18T08:04:08.361Z,97471.75
2018-08-18T08:05:44.535Z,97476.42
2018-08-18T08:07:20.763Z,97464.78
2018-08-18T08:08:55.718Z,97464.50
2018-08-18T08:10:31.479Z,97468.58
2018-08-18T08:12:07.228Z,97467.14
2018-08-18T08:13:43.389Z,97468.69
2018-08-18T08:15:18.601Z,97471.41
2018-08-18T08:16:54.153Z,97474.90
2018-08-18T08:18:31.046Z,97471.13
2018-08-18T08:20:09.044Z,97473.72
2018-08-18T08:21:44.729Z,97477.16
2018-08-18T08:23:21.288Z,97476.97
2018-08-18T08:24:56.908Z,97477.34
2018-08-18T08:26:32.055Z,97474.91
2018-08-18T08:28:08.880Z,97475.82
2018-08-18T08:29:45.177Z,97486.98
2018-08-18T08:31:24.512Z,97484.43
2018-08-18T08:33:01.710Z,97485.83
2018-08-18T08:34:47.435Z,97481.61
2018-08-18T08:36:23.336Z,97484.37
2018-08-18T08:37:58.934Z,97475.93
2018-08-18T08:39:35.646Z,97481.50
2018-08-18T08:41:14.938Z,97485.45
2018-08-18T08:42:54.555Z,97489.39
2018-08-18T08:44:31.427Z,97484.06
2018-08-18T08:46:07.015Z,97494.16
2018-08-18T08:47:44.337Z,97491.84
2018-08-18T08:49:21.413Z,97487.92
2018-08-18T08:51:00.525Z,97485.55
2018-08-18T08:52:50.206Z,97495.65
2018-08-18T08:54:29.466Z,97488.55
2018-08-18T08:56:04.930Z,97484.09
2018-08-18T08:57:41.357Z,97490.71
2018-08-18T08:59:17.722Z,97480.19
2018-08-18T09:00:56.681Z,97485.16
2018-08-18T09:02:32.571Z,97484.17
2018-08-18T09:04:08.456Z,97480.44
2018-08-18T09:05:46.192Z,97486.09
2018-08-18T09:07:22.852Z,97484.26
2018-08-18T09:09:05.497Z,97479.85
2018-08-18T09:10:58.755Z,97485.83
2018-08-18T09:12:36.272Z,97484.15
2018-08-18T09:14:15.029Z,97488.47
2018-08-18T09:15:52.318Z,97484.06
2018-08-18T09:17:30.115Z,97485.57
2018-08-18T09:19:05.201Z,97478.42
2018-08-18T09:20:47.301Z,97476.88
2018-08-18T09:22:23.357Z,97475.41
2018-08-18T09:24:01.661Z,97474.22
2018-08-18T09:25:38.134Z,97474.92
2018-08-18T09:27:15.583Z,97478.83
2018-08-18T09:28:52.216Z,97475.42
2018-08-18T09:30:28.892Z,97478.69
2018-08-18T09:32:08.691Z,97480.61
2018-08-18T09:33:44.873Z,97473.20
2018-08-18T09:35:23.706Z,97469.73
2018-08-18T09:37:00.248Z,97472.69
2018-08-18T09:38:42.467Z,97464.99
2018-08-18T09:40:21.006Z,97463.95
2018-08-18T09:41:56.200Z,97472.23
2018-08-18T09:43:32.135Z,97469.76
2018-08-18T09:45:13.518Z,97473.62
2018-08-18T09:46:52.214Z,97467.67
2018-08-18T09:48:32.033Z,97472.70
2018-08-18T09:50:10.826Z,97472.47
2018-08-18T09:51:58.913Z,97477.47
2018-08-18T09:53:33.959Z,97472.94
2018-08-18T09:55:12.656Z,97473.38
2018-08-18T09:56:49.071Z,97471.09
2018-08-18T09:58:29.985Z,97470.38
2018-08-18T10:00:24.677Z,97470.48
2018-08-18T10:02:07.616Z,97475.36
2018-08-18T10:03:49.081Z,97469.77
2018-08-18T10:05:30.888Z,97470.55
2018-08-18T10:07:15.381Z,97465.12
2018-08-18T10:08:57.216Z,97471.17
2018-08-18T10:10:45.759Z,97468.09
2018-08-18T10:14:21.006Z,97467.45
2018-08-18T10:16:09.962Z,97464.06
2018-08-18T10:18:00.641Z,97466.31
2018-08-18T10:19:44.160Z,97470.08
2018-08-18T10:21:30.512Z,97465.25
2018-08-18T10:23:15.727Z,97466.12
2018-08-18T10:25:00.603Z,97465.33
2018-08-18T10:26:40.872Z,97467.02
2018-08-18T10:30:09.520Z,97457.55
2018-08-18T10:32:02.837Z,97463.73
2018-08-18T10:33:44.316Z,97459.64
2018-08-18T10:37:39.676Z,97463.86
2018-08-18T10:39:20.315Z,97465.59
2018-08-18T10:43:38.771Z,97463.11
2018-08-18T10:45:30.437Z,97466.80
2018-08-18T10:47:24.815Z,97467.33
2018-08-18T10:49:06.521Z,97467.61
2018-08-18T10:51:01.225Z,97465.78
2018-08-18T10:52:50.521Z,97463.20
2018-08-18T10:54:48.986Z,97467.92
2018-08-18T10:56:34.825Z,97464.18
2018-08-18T10:58:11.724Z,97464.75
2018-08-18T10:59:55.181Z,97473.64
2018-08-18T11:01:36.578Z,97473.89
2018-08-18T11:03:18.570Z,97470.52
2018-08-18T11:05:03.256Z,97470.70
2018-08-18T11:06:45.023Z,97474.67
2018-08-18T11:08:21.454Z,97476.72
2018-08-18T11:09:59.922Z,97468.70
2018-08-18T11:11:42.270Z,97465.05
2018-08-18T11:13:20.050Z,97470.50
2018-08-18T11:15:07.895Z,97474.33
2018-08-18T11:16:50.088Z,97475.58
2018-08-18T11:18:27.368Z,97471.20
2018-08-18T11:20:13.444Z,97468.19
2018-08-18T11:21:52.146Z,97469.26
2018-08-18T11:23:29.671Z,97465.65
2018-08-18T11:25:13.774Z,97464.47
2018-08-18T11:26:52.204Z,97462.25
2018-08-18T11:28:29.676Z,97461.64
2018-08-18T11:30:08.092Z,97460.81
2018-08-18T11:31:48.237Z,97453.36
2018-08-18T11:33:37.553Z,97458.80
2018-08-18T11:35:19.755Z,97453.91
2018-08-18T11:37:04.266Z,97457.02
2018-08-18T11:38:47.117Z,97457.41
2018-08-18T11:40:23.921Z,97454.82
2018-08-18T11:42:02.333Z,97454.81
2018-08-18T11:43:47.817Z,97448.84
2018-08-18T11:45:26.110Z,97450.86
2018-08-18T11:47:03.614Z,97451.01
2018-08-18T11:48:39.696Z,97451.23
2018-08-18T11:50:16.790Z,97450.26
2018-08-18T11:51:58.750Z,97443.91
2018-08-18T11:53:37.471Z,97444.42
2018-08-18T11:55:16.316Z,97446.58
2018-08-18T11:56:56.619Z,97442.91
2018-08-18T11:58:31.996Z,97444.09
2018-08-18T12:00:08.980Z,97442.16
2018-08-18T12:01:48.578Z,97449.52
2018-08-18T12:03:29.675Z,97444.94
2018-08-18T12:05:09.704Z,97441.52
2018-08-18T12:06:50.433Z,97442.05
2018-08-18T12:08:32.211Z,97438.81
2018-08-18T12:10:08.753Z,97438.14
2018-08-18T12:11:45.346Z,97431.31
2018-08-18T12:13:27.911Z,97435.55
2018-08-18T12:15:05.293Z,97437.59
2018-08-18T12:16:41.279Z,97440.69
2018-08-18T12:18:16.742Z,97435.91
2018-08-18T12:19:56.420Z,97439.95
2018-08-18T12:21:50.365Z,97432.36
2018-08-18T12:23:26.111Z,97432.37
2018-08-18T12:25:03.136Z,97432.66
2018-08-18T12:26:38.704Z,97434.28
2018-08-18T12:28:15.630Z,97432.20
2018-08-18T12:29:52.405Z,97427.33
2018-08-18T12:31:31.076Z,97423.58
2018-08-18T12:33:12.977Z,97422.25
2018-08-18T12:34:49.581Z,97419.38
2018-08-18T12:36:25.856Z,97415.28
2018-08-18T12:38:06.615Z,97420.67
2018-08-18T12:39:42.198Z,97417.87
2018-08-18T12:41:19.628Z,97410.30
2018-08-18T12:42:55.470Z,97409.92
2018-08-18T12:44:35.736Z,97414.09
2018-08-18T12:46:13.876Z,97408.96
2018-08-18T12:48:00.849Z,97404.41
2018-08-18T12:49:38.245Z,97404.45
2018-08-18T12:51:16.666Z,97411.09
2018-08-18T12:52:52.740Z,97408.22
2018-08-18T12:54:28.845Z,97407.53
2018-08-18T12:56:04.191Z,97402.52
2018-08-18T12:57:43.375Z,97405.97
2018-08-18T12:59:20.370Z,97402.62
2018-08-18T13:00:57.516Z,97399.84
2018-08-18T13:02:45.100Z,97400.34
2018-08-18T13:04:23.945Z,97392.47
2018-08-18T13:05:59.825Z,97395.95
2018-08-18T13:07:40.094Z,97395.83
2018-08-18T13:09:22.841Z,97395.72
2018-08-18T13:11:02.168Z,97397.69
2018-08-18T13:12:39.737Z,97397.95
2018-08-18T13:14:19.800Z,97397.27
2018-08-18T13:15:58.805Z,97395.86
2018-08-18T13:17:35.765Z,97398.30
2018-08-18T13:19:14.563Z,97388.27
2018-08-18T13:20:52.714Z,97388.92
2018-08-18T13:22:29.130Z,97393.46
2018-08-18T13:24:06.773Z,97393.47
2018-08-18T13:25:43.594Z,97389.16
2018-08-18T13:27:19.106Z,97398.67
2018-08-18T13:28:58.833Z,97396.55
2018-08-18T13:30:36.060Z,97401.75
2018-08-18T13:32:15.093Z,97390.83
2018-08-18T13:33:52.356Z,97386.05
2018-08-18T13:35:28.542Z,97380.15
2018-08-18T13:37:05.605Z,97374.47
2018-08-18T13:38:46.481Z,97387.29
2018-08-18T13:40:27.714Z,97385.23
2018-08-18T13:42:14.656Z,97384.75
2018-08-18T13:43:52.976Z,97380.54
2018-08-18T13:45:43.878Z,97386.59
2018-08-18T13:47:24.438Z,97383.11
2018-08-18T13:49:04.103Z,97381.18
2018-08-18T13:50:42.700Z,97385.63
2018-08-18T13:52:20.929Z,97379.50
2018-08-18T13:54:12.431Z,97379.03
2018-08-18T13:55:50.623Z,97373.70
2018-08-18T13:57:34.099Z,97370.33
2018-08-18T13:59:13.861Z,97374.69
2018-08-18T14:00:50.946Z,97378.05
2018-08-18T14:02:30.147Z,97373.08
2018-08-18T14:04:10.334Z,97375.27
2018-08-18T14:05:47.081Z,97377.86
2018-08-18T14:09:12.523Z,97375.80
2018-08-18T14:10:51.467Z,97376.53
2018-08-18T14:12:31.393Z,97367.45
2018-08-18T14:14:08.825Z,97371.61
2018-08-18T14:15:52.783Z,97374.98
2018-08-18T14:17:34.347Z,97372.20
2018-08-18T14:19:13.243Z,97374.95
2018-08-18T14:21:07.138Z,97372.50
2018-08-18T14:22:57.567Z,97369.44
2018-08-18T14:24:37.496Z,97369.95
2018-08-18T14:26:13.594Z,97364.06
2018-08-18T14:27:57.499Z,97362.32
2018-08-18T14:29:34.466Z,97368.10
2018-08-18T14:31:11.594Z,97359.45
2018-08-18T14:32:55.444Z,97354.26
2018-08-18T14:34:36.787Z,97355.08
2018-08-18T14:36:16.320Z,97357.80
2018-08-18T14:37:52.275Z,97358.89
2018-08-18T14:39:38.695Z,97352.00
2018-08-18T14:41:15.021Z,97358.94
2018-08-18T14:42:59.043Z,97358.97
2018-08-18T14:44:37.745Z,97349.66
2018-08-18T14:46:21.352Z,97352.00
2018-08-18T14:47:59.053Z,97352.42
2018-08-18T14:49:36.890Z,97359.95
2018-08-18T14:51:12.557Z,97356.51
2018-08-18T14:52:50.526Z,97356.63
2018-08-18T14:54:34.360Z,97356.86
2018-08-18T14:56:13.587Z,97362.91
2018-08-18T14:57:56.504Z,97355.61
2018-08-18T14:59:40.409Z,97360.56
2018-08-18T15:01:17.259Z,97361.74
2018-08-18T15:02:56.646Z,97359.11
2018-08-18T15:04:35.227Z,97363.59
2018-08-18T15:06:14.733Z,97361.44
2018-08-18T15:08:04.596Z,97362.58
2018-08-18T15:09:47.998Z,97362.24
2018-08-18T15:11:24.876Z,97363.27
2018-08-18T15:13:02.458Z,97362.75
2018-08-18T15:14:39.934Z,97362.28
2018-08-18T15:16:16.926Z,97358.48
2018-08-18T15:17:54.686Z,97354.47
2018-08-18T15:19:30.617Z,97354.97
2018-08-18T15:21:08.697Z,97359.58
2018-08-18T15:22:45.585Z,97356.91
2018-08-18T15:24:24.055Z,97356.80
2018-08-18T15:26:05.461Z,97361.41
2018-08-18T15:27:43.656Z,97357.20
2018-08-18T15:29:20.358Z,97357.77
2018-08-18T15:30:56.629Z,97354.56
2018-08-18T15:32:34.935Z,97359.83
2018-08-18T15:34:10.721Z,97358.20
2018-08-18T15:35:46.942Z,97346.39
2018-08-18T15:37:23.396Z,97345.65
2018-08-18T15:39:00.510Z,97342.43
2018-08-18T15:40:36.543Z,97342.30
2018-08-18T15:42:11.959Z,97348.55
2018-08-18T15:43:47.808Z,97352.84
2018-08-18T15:45:27.740Z,97349.11
2018-08-18T15:47:03.798Z,97343.56
2018-08-18T15:48:43.763Z,97338.58
2018-08-18T15:50:25.847Z,97346.84
2018-08-18T15:52:02.540Z,97339.92
2018-08-18T15:54:03.586Z,97341.73
2018-08-18T15:55:41.182Z,97343.34
2018-08-18T15:57:27.103Z,97338.31
2018-08-18T15:59:07.153Z,97336.73
2018-08-18T16:00:44.296Z,97340.37
2018-08-18T16:02:20.541Z,97340.58
2018-08-18T16:03:59.594Z,97337.11
2018-08-18T16:05:40.991Z,97340.58
2018-08-18T16:07:18.334Z,97342.73
2018-08-18T16:08:54.013Z,97348.31
2018-08-18T16:10:33.325Z,97344.17
2018-08-18T16:12:09.919Z,97346.02
2018-08-18T16:13:49.150Z,97347.14
2018-08-18T16:15:27.365Z,97341.70
2018-08-18T16:17:04.136Z,97345.48
2018-08-18T16:18:42.016Z,97337.38
2018-08-18T16:20:26.262Z,97342.52
2018-08-18T16:22:04.528Z,97335.47
2018-08-18T16:23:44.940Z,97335.12
2018-08-18T16:25:32.197Z,97337.52
2018-08-18T16:27:11.383Z,97336.76
2018-08-18T16:28:48.365Z,97334.48
2018-08-18T16:30:31.981Z,97332.58
2018-08-18T16:32:28.372Z,97330.08
2018-08-18T16:34:10.910Z,97333.11
2018-08-18T16:35:50.923Z,97337.32
2018-08-18T16:37:28.600Z,97335.23
2018-08-18T16:39:06.132Z,97336.40
2018-08-18T16:40:42.479Z,97336.01
2018-08-18T16:42:22.626Z,97340.83
2018-08-18T16:44:00.229Z,97336.40
2018-08-18T16:47:22.194Z,97339.39
2018-08-18T16:49:06.066Z,97338.68
2018-08-18T16:50:49.008Z,97340.53
2018-08-18T16:52:30.253Z,97336.02
2018-08-18T16:54:19.103Z,97342.11
2018-08-18T16:55:55.789Z,97344.59
2018-08-18T16:57:32.913Z,97340.53
2018-08-18T17:01:02.212Z,97340.41
2018-08-18T17:02:43.124Z,97341.68
2018-08-18T17:04:33.269Z,97345.63
2018-08-18T17:06:13.301Z,97351.45
2018-08-18T17:07:51.648Z,97347.69
2018-08-18T17:09:43.824Z,97351.98
2018-08-18T17:11:30.309Z,97355.28
2018-08-18T17:13:10.892Z,97356.27
2018-08-18T17:14:53.243Z,97356.14
2018-08-18T17:16:36.339Z,97357.52
2018-08-18T17:18:20.921Z,97352.44
2018-08-18T17:20:01.496Z,97345.57
2018-08-18T17:21:37.723Z,97340.75
2018-08-18T17:23:16.940Z,97353.93
2018-08-18T17:25:00.537Z,97357.77
2018-08-18T17:26:51.082Z,97355.26
2018-08-18T17:28:37.656Z,97357.89
2018-08-18T17:30:22.341Z,97361.31
2018-08-18T17:32:00.871Z,97363.34
2018-08-18T17:33:42.356Z,97360.80
2018-08-18T17:35:20.401Z,97363.97
2018-08-18T17:36:57.892Z,97364.50
2018-08-18T17:38:33.944Z,97366.91
2018-08-18T17:40:11.816Z,97368.34
2018-08-18T17:41:49.488Z,97372.25
2018-08-18T17:43:33.646Z,97377.41
2018-08-18T17:45:12.574Z,97377.04
2018-08-18T17:46:55.711Z,97378.55
2018-08-18T17:48:42.263Z,97377.93
2018-08-18T17:50:19.302Z,97380.45
2018-08-18T17:52:12.130Z,97377.03
2018-08-18T17:53:57.024Z,97383.20
2018-08-18T17:55:37.773Z,97378.41
2018-08-18T17:59:03.735Z,97380.01
2018-08-18T18:00:44.421Z,97383.80
2018-08-18T18:02:20.672Z,97383.73
2018-08-18T18:03:58.863Z,97376.25
2018-08-18T18:05:39.244Z,97384.95
2018-08-18T18:07:17.602Z,97383.80
2018-08-18T18:08:53.213Z,97389.05
2018-08-18T18:10:31.483Z,97388.78
2018-08-18T18:12:39.063Z,97389.48
2018-08-18T18:14:23.849Z,97386.52
2018-08-18T18:16:00.501Z,97380.92
2018-08-18T18:17:36.748Z,97385.70
2018-08-18T18:19:14.622Z,97388.44
2018-08-18T18:20:57.335Z,97394.02
2018-08-18T18:22:40.643Z,97388.16
2018-08-18T18:24:29.849Z,97392.92
2018-08-18T18:26:20.072Z,97387.70
2018-08-18T18:28:09.730Z,97390.91
2018-08-18T18:31:42.324Z,97396.28
2018-08-18T18:33:23.436Z,97397.47
2018-08-18T18:35:09.550Z,97397.64
2018-08-18T18:36:46.621Z,97403.85
2018-08-18T18:38:26.683Z,97401.50
2018-08-18T18:40:05.373Z,97404.55
2018-08-18T18:41:42.156Z,97407.14
2018-08-18T18:43:18.685Z,97406.36
2018-08-18T18:45:04.198Z,97407.70
2018-08-18T18:46:45.155Z,97412.55
2018-08-18T18:48:33.881Z,97406.53
2018-08-18T18:50:12.652Z,97409.45
2018-08-18T18:51:50.804Z,97414.63
2018-08-18T18:53:35.232Z,97416.83
2018-08-18T18:55:17.521Z,97413.01
2018-08-18T18:57:05.417Z,97413.92
2018-08-18T18:58:49.237Z,97418.78
2018-08-18T19:00:31.869Z,97416.19
2018-08-18T19:02:11.401Z,97420.93
2018-08-18T19:03:50.807Z,97425.23
2018-08-18T19:05:32.644Z,97431.72
2018-08-18T19:07:22.233Z,97429.39
2018-08-18T19:11:01.290Z,97436.40
2018-08-18T19:12:40.836Z,97435.52
2018-08-18T19:14:20.406Z,97439.14
2018-08-18T19:15:59.949Z,97446.14
2018-08-18T19:17:44.072Z,97450.52
2018-08-18T19:19:27.276Z,97448.25
2018-08-18T19:21:21.556Z,97451.83
2018-08-18T19:23:09.880Z,97451.16
2018-08-18T19:24:59.054Z,97447.04
2018-08-18T19:26:49.654Z,97448.36
2018-08-18T19:28:36.242Z,97454.86
2018-08-18T19:30:24.143Z,97456.77
2018-08-18T19:32:11.564Z,97454.53
2018-08-18T19:33:52.783Z,97453.78
2018-08-18T19:35:40.707Z,97455.19
2018-08-18T19:37:24.764Z,97457.64
2018-08-18T19:39:06.235Z,97455.84
2018-08-18T19:40:51.343Z,97469.95
2018-08-18T19:42:29.298Z,97469.64